Vernon, TX

9:10 AM CDT on August 01, 2014 (GMT -0500)
Vernon (KF05) Elev 1266 ft | 34.23 °N, 99.28 °W | Change Station

Current weather conditions updated 15 minutes ago

Clear
Clear
69 °F
Feels Like 69 °F
N
4
Wind Variable Wind from NE

Today is forecast to be Much Warmer than yesterday.

Today
High -- | Low -- °F
--% Chance of Precip.
Yesterday
High -- | Low -- °F
Precip. -- in
6:48 AM 8:38 PM
Waxing Crescent, 26% visible
Pressure 30.12 in
Visibility 5.0 miles
Clouds Clear
Dew Point 67 °F
Humidity 92%
Rainfall 0.00 in
Snow Depth Not available.
UV 2 out of 12
Pollen 5.10 out of 12
Air Quality Not available.
Flu Activity Not available.
METAR KF05 011355Z AUTO 04003KT 5SM CLR 21/19 A3012 RMK AO1 T02070194

More Conditions Fewer Conditions

Pressure 30.12 in
Visibility 5.0 miles
Clouds Clear
Dew Point 67 °F
Humidity 92%
Rainfall 0.00 in
Snow Depth Not available.
UV 2 out of 12
Pollen 5.10 out of 12
Air Quality Not available.
Flu Activity Not available.
METAR KF05 011355Z AUTO 04003KT 5SM CLR 21/19 A3012 RMK AO1 T02070194

More Conditions Fewer Conditions

10-Day Weather Forecast

Almanac

Astronomy

Aug. 01, 2014 Rise Set
Actual Time 6:48 AM CDT 8:38 PM CDT
Civil Twilight 6:20 AM CDT 9:05 PM CDT
Nautical Twilight 5:47 AM CDT 9:38 PM CDT
Astronomical Twilight 5:12 AM CDT 10:14 PM CDT
Moon 11:57 AM CDT 11:41 PM CDT
Length of Visible Light 14h 45m
Length of Day
13h 50m
Tomorrow will be 1m 37s shorter.
Waxing Crescent, 26% of the Moon is Illuminated
Today
Waxing Crescent
Aug 3
First Quarter
Aug 10
Full
Aug 17
Last Quarter
Aug 25
New

Today's Extremes

State Highs State Lows

Community

WunderPhotos

Upload Photos

1,739,577 photos uploaded!

Nearby

Snow Depth

Station Depth Elevation
No new snow has been reported.

Earthquake Activity

City Distance Mag. Time & Date
No recent earthquake activity has been reported nearby.
Minimum magnitude displayed is 2.5.

Coastal Water Temperatures

Place Temperature
No Stations Reporting

Nearby Weather Stations

Station Location Temp. Dew Point Humidity Wind Precip. Elev Updated Type
Northside ISD, Vernon, TX 70.9 °F 68 °F 89% North  at  3.0 mph 0.00 in / hr 1317 ft 9:10 AM CDT Rapid Fire
Turner Home, Odell, TX 70.7 °F 67 °F 89% NNW  at  1.0 mph 0.00 in / hr 1347 ft 9:10 AM CDT Rapid Fire
KD5PBR Turner Farm, Odell, TX 69.0 °F 66 °F 89% NNE  at  1.0 mph 0.00 in / hr 1341 ft 9:10 AM CDT Rapid Fire
Hardeman, Chillicothe, TX 71.0 °F 67 °F 88% ENE  at  0.0 mph 0.00 in / hr 1421 ft 9:10 AM CDT Rapid Fire
Chillicothe Grain Elevator, Chillicothe, TX 71.3 °F 68 °F 90% North  at  1.0 mph 0.00 in / hr 1401 ft 9:09 AM CDT Normal
Vernon, TX 72.5 °F - - NNE  at  6.5 mph - / hr 1204 ft 8:51 AM CDT Normal
thalia northeast, Thalia, TX 70.9 °F 68 °F 89% North  at  2.0 mph 0.00 in / hr 1358 ft 9:10 AM CDT Rapid Fire

Show More Stations Show Fewer Stations